Time;durP1;ratioP1;P1;durP2;ratioP2;P2;SDS_P1;SDS_P2;PMS_P1;PMS_P2;Temp;Humidity;BMP_temperature;BMP_pressure;BME280_temperature;BME280_humidity;BME280_pressure;Samples;Min_cycle;Max_cycle;Signal;HPM_P1;HPM_P2
2021/12/13 00:02:08;;;;;;;38.50;23.77;;;;;;;9.07;100.00;102407.44;5053296;28;20068;-55
2021/12/13 00:04:47;;;;;;;37.42;23.50;;;;;;;9.11;100.00;102411.38;5053870;28;20116;-56
2021/12/13 00:07:21;;;;;;;38.20;24.25;;;;;;;9.10;100.00;102406.13;5053774;28;20025;-56
2021/12/13 00:09:49;;;;;;;;;;;;;;;9.16;100.00;102413.34;5053506;28;20121;-57
2021/12/13 00:12:25;;;;;;;38.13;23.27;;;;;;;9.05;100.00;102395.84;5053425;28;20268;-57
2021/12/13 00:14:53;;;;;;;37.42;22.42;;;;;;;9.07;100.00;102406.63;5053581;28;20029;-57
2021/12/13 00:17:28;;;;;;;36.03;22.15;;;;;;;9.04;100.00;102402.44;5053303;28;20392;-55
2021/12/13 00:20:09;;;;;;;37.45;24.70;;;;;;;9.04;100.00;102411.56;5053480;28;20082;-56
2021/12/13 00:22:39;;;;;;;36.17;22.90;;;;;;;9.04;100.00;102406.03;5053190;28;20033;-56
2021/12/13 00:25:12;;;;;;;35.58;21.90;;;;;;;9.05;100.00;102404.13;5052999;28;20028;-56
2021/12/13 00:27:44;;;;;;;35.17;22.40;;;;;;;9.00;100.00;102404.91;5053717;28;20048;-57
2021/12/13 00:30:28;;;;;;;35.45;21.67;;;;;;;9.04;100.00;102416.25;5053121;28;20067;-56
2021/12/13 00:33:04;;;;;;;35.97;21.95;;;;;;;8.98;100.00;102408.97;5053293;28;20047;-56
2021/12/13 00:35:56;;;;;;;34.33;22.08;;;;;;;9.02;100.00;102416.50;5053173;28;20052;-56
2021/12/13 00:38:24;;;;;;;35.83;21.42;;;;;;;8.93;100.00;102415.28;5052856;28;20095;-55
2021/12/13 00:40:56;;;;;;;34.63;21.77;;;;;;;8.94;100.00;102416.13;5052715;28;20037;-56
2021/12/13 00:43:26;;;;;;;34.60;21.25;;;;;;;8.99;100.00;102425.31;5052536;28;20080;-55
2021/12/13 00:45:55;;;;;;;33.50;20.80;;;;;;;9.00;100.00;102431.66;5052921;28;20387;-55
2021/12/13 00:48:22;;;;;;;33.72;21.30;;;;;;;9.00;100.00;102437.16;5052527;28;20048;-56
2021/12/13 00:51:01;;;;;;;34.15;21.02;;;;;;;9.00;100.00;102431.66;5053220;28;20024;-55
2021/12/13 00:53:29;;;;;;;34.28;20.95;;;;;;;8.99;100.00;102435.50;5052452;28;20037;-57
2021/12/13 00:55:55;;;;;;;34.00;20.45;;;;;;;8.96;100.00;102430.50;5052609;28;20033;-56
2021/12/13 00:58:23;;;;;;;35.08;20.02;;;;;;;8.94;100.00;102425.22;5053113;28;20068;-57
2021/12/13 01:00:56;;;;;;;34.38;19.83;;;;;;;8.86;100.00;102426.53;5052622;28;20033;-56
2021/12/13 01:03:37;;;;;;;35.20;19.83;;;;;;;8.89;100.00;102438.97;5052582;28;20032;-56
2021/12/13 01:06:41;;;;;;;33.70;19.55;;;;;;;8.87;100.00;102432.88;5052606;28;20029;-56
2021/12/13 01:09:52;;;;;;;32.17;18.45;;;;;;;8.87;100.00;102435.63;5036714;28;20520;-56
2021/12/13 01:12:20;;;;;;;30.27;18.33;;;;;;;8.85;100.00;102429.53;5052359;28;20116;-56
2021/12/13 01:15:02;;;;;;;30.45;17.70;;;;;;;8.84;100.00;102436.97;5053417;28;20025;-55
2021/12/13 01:17:58;;;;;;;30.45;17.95;;;;;;;8.86;100.00;102442.22;5053138;28;20029;-56
2021/12/13 01:21:00;;;;;;;31.00;18.35;;;;;;;8.86;100.00;102443.09;5052251;28;20085;-55
2021/12/13 01:23:44;;;;;;;34.30;20.45;;;;;;;8.74;100.00;102448.69;5053093;28;20029;-56
2021/12/13 01:28:48;;;;;;;31.08;18.98;;;;;;;8.71;100.00;102446.47;5052591;28;20045;-58
2021/12/13 01:31:20;;;;;;;34.00;20.02;;;;;;;8.60;100.00;102432.78;5052708;28;20564;-57
2021/12/13 01:33:50;;;;;;;32.17;18.52;;;;;;;8.66;100.00;102454.66;5051729;28;20074;-56
2021/12/13 01:36:21;;;;;;;32.33;20.08;;;;;;;8.64;100.00;102450.47;5051743;28;20028;-56
2021/12/13 01:38:51;;;;;;;33.58;20.00;;;;;;;8.62;100.00;102458.16;5052099;28;20452;-55
2021/12/13 01:41:23;;;;;;;34.20;18.75;;;;;;;8.57;100.00;102454.28;5056296;28;20029;-56
2021/12/13 01:43:56;;;;;;;33.33;20.10;;;;;;;8.56;100.00;102448.97;5056186;28;20098;-57
2021/12/13 01:46:23;;;;;;;33.70;19.77;;;;;;;8.60;100.00;102460.38;5056012;28;20025;-58
2021/12/13 01:48:50;;;;;;;34.80;21.58;;;;;;;8.56;100.00;102462.78;5055848;28;20032;-56
2021/12/13 01:51:20;;;;;;;33.67;20.50;;;;;;;8.49;100.00;102454.69;5055663;28;20099;-56
2021/12/13 01:53:51;;;;;;;35.55;22.40;;;;;;;8.56;100.00;102460.00;5055725;28;20033;-57
2021/12/13 01:56:40;;;;;;;33.78;19.98;;;;;;;8.50;100.00;102455.53;5056145;28;20078;-58
2021/12/13 01:59:28;;;;;;;36.78;20.55;;;;;;;8.52;100.00;102456.09;5055921;28;20453;-56
2021/12/13 02:01:58;;;;;;;33.40;19.40;;;;;;;8.53;100.00;102461.38;5055935;28;20025;-58
2021/12/13 02:04:23;;;;;;;38.35;21.92;;;;;;;8.52;100.00;102464.38;5056208;28;20040;-56
2021/12/13 02:06:55;;;;;;;33.95;20.63;;;;;;;8.48;100.00;102461.31;5054442;28;20021;-56
2021/12/13 02:09:24;;;;;;;33.72;21.13;;;;;;;8.47;100.00;102461.50;5056216;28;20037;-55
2021/12/13 02:11:54;;;;;;;34.88;21.50;;;;;;;8.49;100.00;102464.88;5055831;28;20056;-56
2021/12/13 02:14:27;;;;;;;37.50;21.58;;;;;;;8.44;100.00;102465.59;5055342;28;20030;-56
2021/12/13 02:17:16;;;;;;;37.42;20.48;;;;;;;8.50;100.00;102470.13;5056095;28;20068;-56
2021/12/13 02:19:58;;;;;;;35.10;19.90;;;;;;;8.57;100.00;102472.72;5056259;28;20025;-57
2021/12/13 02:22:35;;;;;;;37.38;21.25;;;;;;;8.50;100.00;102463.78;5055485;28;20128;-56
2021/12/13 02:25:10;;;;;;;36.67;20.58;;;;;;;8.51;100.00;102473.75;5055637;28;20171;-55
2021/12/13 02:27:38;;;;;;;36.67;21.05;;;;;;;8.52;100.00;102459.69;5055211;28;20051;-55
2021/12/13 02:30:14;;;;;;;34.50;19.92;;;;;;;8.49;100.00;102453.84;5054684;28;20460;-55
2021/12/13 02:32:42;;;;;;;35.22;20.92;;;;;;;8.53;100.00;102471.56;5055305;28;20033;-55
2021/12/13 02:35:08;;;;;;;36.38;21.55;;;;;;;8.49;100.00;102451.09;5055140;28;20021;-55
2021/12/13 02:37:34;;;;;;;36.50;21.38;;;;;;;8.53;100.00;102461.38;5054831;28;20089;-57
2021/12/13 02:40:03;;;;;;;36.67;21.38;;;;;;;8.49;100.00;102462.13;5056076;28;20029;-57
2021/12/13 02:42:31;;;;;;;39.22;21.90;;;;;;;8.49;100.00;102462.97;5055395;28;20052;-57
2021/12/13 02:45:13;;;;;;;37.90;21.67;;;;;;;8.47;100.00;102459.63;5054153;28;20025;-57
2021/12/13 02:47:44;;;;;;;38.00;22.08;;;;;;;8.47;100.00;102455.97;5055284;28;20025;-57
2021/12/13 02:50:15;;;;;;;37.40;21.65;;;;;;;8.36;100.00;102455.81;5054877;28;20376;-57
2021/12/13 02:52:41;;;;;;;37.35;21.80;;;;;;;8.40;100.00;102462.50;5054219;28;20025;-56
2021/12/13 02:55:14;;;;;;;38.40;23.00;;;;;;;8.36;100.00;102457.75;5055326;28;20491;-57
2021/12/13 02:57:46;;;;;;;35.78;21.48;;;;;;;8.37;100.00;102468.53;5055362;28;20098;-57
2021/12/13 03:00:33;;;;;;;36.08;21.63;;;;;;;8.39;100.00;102462.78;5053848;28;20021;-56
2021/12/13 03:03:04;;;;;;;36.15;21.00;;;;;;;8.38;100.00;102461.09;5054979;28;20032;-56
2021/12/13 03:05:34;;;;;;;38.25;21.85;;;;;;;8.35;100.00;102454.19;5055078;28;20037;-57
2021/12/13 03:08:07;;;;;;;36.22;21.70;;;;;;;8.40;100.00;102465.28;5054526;28;20040;-57
2021/12/13 03:10:39;;;;;;;38.63;21.50;;;;;;;8.34;100.00;102451.66;5053845;28;20155;-57
2021/12/13 03:13:05;;;;;;;40.58;22.38;;;;;;;8.38;100.00;102472.13;5054566;28;20032;-57
2021/12/13 03:15:33;;;;;;;36.53;22.23;;;;;;;8.32;100.00;102457.44;5054820;28;20405;-57
2021/12/13 03:18:09;;;;;;;38.55;23.02;;;;;;;8.35;100.00;102467.13;5054185;28;20040;-57
2021/12/13 03:20:53;;;;;;;37.58;21.88;;;;;;;8.33;100.00;102478.41;5054100;28;20495;-57
2021/12/13 03:23:51;;;;;;;39.40;22.30;;;;;;;8.32;100.00;102476.72;5054789;28;20072;-57
2021/12/13 03:26:34;;;;;;;37.17;22.08;;;;;;;8.25;100.00;102465.88;5039250;28;20120;-57
2021/12/13 03:29:05;;;;;;;37.65;21.67;;;;;;;8.28;100.00;102479.16;5053953;28;20021;-57
2021/12/13 03:31:38;;;;;;;39.40;21.92;;;;;;;8.21;100.00;102461.09;5053966;28;20025;-57
2021/12/13 03:34:13;;;;;;;38.53;21.73;;;;;;;8.28;100.00;102470.03;5054129;28;20056;-57
2021/12/13 03:36:50;;;;;;;38.65;21.83;;;;;;;8.26;100.00;102477.75;5054668;28;20295;-57
2021/12/13 03:39:21;;;;;;;39.42;21.98;;;;;;;8.25;100.00;102479.66;5053885;28;20028;-57
2021/12/13 03:41:49;;;;;;;36.22;21.08;;;;;;;8.19;100.00;102468.78;5053933;28;20032;-58
2021/12/13 03:44:20;;;;;;;38.05;22.45;;;;;;;8.22;100.00;102476.56;5053893;28;20031;-57
2021/12/13 03:46:48;;;;;;;36.78;20.95;;;;;;;8.19;100.00;102466.88;5054135;28;20468;-57
2021/12/13 03:49:15;;;;;;;37.75;21.52;;;;;;;8.20;100.00;102481.47;5054135;28;20060;-57
2021/12/13 03:51:42;;;;;;;37.97;21.67;;;;;;;8.18;100.00;102469.84;5053988;28;20079;-57
2021/12/13 03:54:12;;;;;;;37.85;21.35;;;;;;;8.17;100.00;102480.06;5053560;28;20384;-58
2021/12/13 03:56:44;;;;;;;34.95;20.98;;;;;;;8.12;100.00;102469.78;5053538;28;20442;-56
2021/12/13 03:59:19;;;;;;;37.55;21.85;;;;;;;8.17;100.00;102482.81;5053859;28;20120;-57
2021/12/13 04:01:51;;;;;;;39.17;21.67;;;;;;;8.19;100.00;102474.28;5053800;28;20036;-58
2021/12/13 04:04:24;;;;;;;37.88;21.95;;;;;;;8.18;100.00;102469.84;5054119;28;20052;-58
2021/12/13 04:06:54;;;;;;;39.70;21.80;;;;;;;8.18;100.00;102478.97;5052589;28;20032;-57
2021/12/13 04:09:22;;;;;;;37.78;21.17;;;;;;;8.12;100.00;102467.03;5053978;28;20029;-57
2021/12/13 04:11:53;;;;;;;37.08;21.30;;;;;;;8.11;100.00;102454.31;5053336;28;20025;-57
2021/12/13 04:14:25;;;;;;;40.92;21.50;;;;;;;8.23;100.00;102475.47;5053476;28;20103;-57
2021/12/13 04:17:36;;;;;;;38.95;21.42;;;;;;;8.21;100.00;102466.63;5053642;28;20036;-57
2021/12/13 04:20:07;;;;;;;35.67;20.75;;;;;;;8.20;100.00;102476.81;5052365;28;20037;-57
2021/12/13 04:22:37;;;;;;;37.28;20.85;;;;;;;8.18;100.00;102481.75;5052518;28;20043;-57
2021/12/13 04:25:08;;;;;;;36.45;20.25;;;;;;;8.11;100.00;102473.63;5053262;28;20021;-57
2021/12/13 04:27:39;;;;;;;39.42;21.05;;;;;;;8.17;100.00;102488.34;5052959;28;20021;-57
2021/12/13 04:30:22;;;;;;;40.17;22.00;;;;;;;8.16;100.00;102489.41;5053044;28;20040;-57
2021/12/13 04:32:51;;;;;;;39.37;21.23;;;;;;;8.07;100.00;102477.97;5052735;28;20036;-57
2021/12/13 04:35:17;;;;;;;37.92;22.15;;;;;;;8.10;100.00;102482.97;5052947;28;20669;-57
2021/12/13 04:37:47;;;;;;;38.85;20.83;;;;;;;8.04;100.00;102478.47;5053061;28;20029;-56
2021/12/13 04:40:21;;;;;;;39.03;23.05;;;;;;;8.05;100.00;102463.59;5053051;28;20373;-57
2021/12/13 04:42:53;;;;;;;38.25;21.67;;;;;;;8.09;100.00;102477.72;5052992;28;20049;-56
2021/12/13 04:45:23;;;;;;;38.63;21.10;;;;;;;8.10;100.00;102487.66;5052941;28;20036;-57
2021/12/13 04:48:29;;;;;;;36.78;20.67;;;;;;;8.15;100.00;102475.91;5053055;28;20027;-57
2021/12/13 04:51:10;;;;;;;37.42;21.73;;;;;;;8.14;100.00;102488.00;5011527;28;20029;-57
2021/12/13 04:53:46;;;;;;;36.38;19.77;;;;;;;8.14;100.00;102482.50;5050125;28;20129;-56
2021/12/13 04:56:18;;;;;;;35.28;19.77;;;;;;;8.11;100.00;102484.66;5052807;28;20507;-58
2021/12/13 04:58:46;;;;;;;36.47;20.45;;;;;;;8.09;100.00;102483.25;5053227;28;20029;-58
2021/12/13 05:01:14;;;;;;;37.53;20.77;;;;;;;8.06;100.00;102479.06;5052655;28;20067;-58
2021/12/13 05:03:45;;;;;;;36.22;20.40;;;;;;;8.06;100.00;102480.97;5052633;28;20048;-58
2021/12/13 05:06:17;;;;;;;36.03;21.02;;;;;;;8.01;100.00;102473.44;5052863;28;20533;-57
2021/12/13 05:08:53;;;;;;;37.35;20.70;;;;;;;8.06;100.00;102484.56;5053034;28;20021;-57
2021/12/13 05:11:19;;;;;;;36.72;20.55;;;;;;;8.09;100.00;102480.47;5052756;28;20471;-57
2021/12/13 05:13:54;;;;;;;34.63;20.63;;;;;;;8.06;100.00;102483.72;5052133;28;20120;-57
2021/12/13 05:16:48;;;;;;;37.45;21.10;;;;;;;8.03;100.00;102478.72;5052878;28;20099;-57
2021/12/13 05:19:26;;;;;;;38.15;21.23;;;;;;;8.05;100.00;102488.41;5053006;28;20036;-55
2021/12/13 05:21:52;;;;;;;36.83;20.23;;;;;;;8.04;100.00;102486.75;5052121;28;20495;-56
2021/12/13 05:24:21;;;;;;;35.17;19.08;;;;;;;7.97;100.00;102477.81;5052259;28;20029;-56
2021/12/13 05:27:19;;;;;;;35.65;19.80;;;;;;;8.03;100.00;102487.00;5052566;28;20032;-57
2021/12/13 05:29:50;;;;;;;35.72;20.05;;;;;;;7.95;100.00;102478.03;5050331;28;20124;-56
2021/12/13 05:32:38;;;;;;;33.33;18.08;;;;;;;8.02;100.00;102482.56;5052622;28;20037;-57
2021/12/13 05:35:14;;;;;;;35.08;19.38;;;;;;;8.00;100.00;102493.81;5052165;28;20024;-57
2021/12/13 05:37:43;;;;;;;34.97;19.17;;;;;;;7.94;100.00;102479.09;5052521;28;20074;-58
2021/12/13 05:40:13;;;;;;;34.88;19.42;;;;;;;7.95;100.00;102480.78;5052324;28;20047;-56
2021/12/13 05:42:43;;;;;;;32.13;18.77;;;;;;;8.00;100.00;102491.06;5052395;28;20044;-57
2021/12/13 05:45:12;;;;;;;34.50;18.48;;;;;;;7.90;100.00;102475.19;5051830;28;20110;-57
2021/12/13 05:47:38;;;;;;;34.08;19.42;;;;;;;8.00;100.00;102493.00;5052172;28;20029;-58
2021/12/13 05:50:07;;;;;;;32.97;19.15;;;;;;;7.95;100.00;102486.28;5052161;28;20379;-57
2021/12/13 05:52:38;;;;;;;34.30;18.50;;;;;;;7.96;100.00;102487.97;5051837;28;20028;-57
2021/12/13 05:55:12;;;;;;;33.40;18.08;;;;;;;7.95;100.00;102485.47;5051337;28;20043;-58
2021/12/13 05:57:43;;;;;;;32.25;17.35;;;;;;;7.97;100.00;102480.56;5052526;28;20044;-58
2021/12/13 06:00:19;;;;;;;32.53;18.30;;;;;;;8.01;100.00;102495.50;5052355;28;20037;-57
2021/12/13 06:03:09;;;;;;;31.83;18.08;;;;;;;7.94;100.00;102481.88;5051781;28;20480;-56
2021/12/13 06:05:45;;;;;;;32.08;17.38;;;;;;;7.93;100.00;102496.75;5052378;28;20021;-58
2021/12/13 06:08:17;;;;;;;31.02;17.33;;;;;;;7.98;100.00;102493.25;5052316;28;20028;-56
2021/12/13 06:10:57;;;;;;;29.83;16.42;;;;;;;7.92;100.00;102484.06;5051743;28;20082;-57
2021/12/13 06:13:46;;;;;;;32.03;17.58;;;;;;;8.00;100.00;102487.50;5052608;28;20025;-58
2021/12/13 06:16:23;;;;;;;29.67;16.75;;;;;;;8.03;100.00;102495.28;5052215;28;20021;-58
2021/12/13 06:18:57;;;;;;;30.40;16.60;;;;;;;8.00;100.00;102493.00;5051897;28;20021;-57
2021/12/13 06:21:41;;;;;;;29.92;17.02;;;;;;;8.06;100.00;102500.25;5052192;28;20029;-58
2021/12/13 06:24:08;;;;;;;31.23;16.15;;;;;;;8.03;100.00;102498.03;5052212;28;20091;-57
2021/12/13 06:26:34;;;;;;;31.65;16.45;;;;;;;8.02;100.00;102501.84;5054331;28;20047;-57
2021/12/13 06:29:02;;;;;;;30.55;16.95;;;;;;;8.02;100.00;102502.69;5055068;28;20472;-56
2021/12/13 06:31:43;;;;;;;30.88;16.00;;;;;;;7.94;100.00;102501.16;5054946;28;20652;-56
2021/12/13 06:34:12;;;;;;;28.23;16.23;;;;;;;8.00;100.00;102515.88;5055608;28;20036;-58
2021/12/13 06:36:48;;;;;;;29.20;15.93;;;;;;;7.93;100.00;102509.69;5055144;28;20074;-58
2021/12/13 06:39:19;;;;;;;29.67;17.10;;;;;;;7.96;100.00;102515.53;5054130;28;20427;-58
2021/12/13 06:41:48;;;;;;;28.83;16.10;;;;;;;7.97;100.00;102525.47;5048715;28;20033;-58
2021/12/13 06:44:29;;;;;;;31.42;16.63;;;;;;;7.98;100.00;102526.31;5050447;28;20072;-59
2021/12/13 06:47:01;;;;;;;29.58;16.15;;;;;;;7.98;100.00;102523.56;5053375;28;20031;-58
2021/12/13 06:49:38;;;;;;;28.95;15.45;;;;;;;7.96;100.00;102526.56;5053428;28;20032;-58
2021/12/13 06:52:20;;;;;;;29.83;16.58;;;;;;;7.97;100.00;102524.66;5052801;28;20429;-57
2021/12/13 06:55:02;;;;;;;28.70;16.10;;;;;;;7.99;100.00;102524.41;5053413;28;20108;-59
2021/12/13 06:57:46;;;;;;;28.73;16.20;;;;;;;7.95;100.00;102521.31;5052967;28;20287;-58
2021/12/13 07:00:11;;;;;;;31.35;16.38;;;;;;;7.92;100.00;102521.78;5053525;28;20029;-58
2021/12/13 07:02:42;;;;;;;27.43;14.67;;;;;;;7.89;100.00;102523.13;5054087;28;20037;-58
2021/12/13 07:05:17;;;;;;;30.25;15.05;;;;;;;7.88;100.00;102537.97;5053814;28;20367;-58
2021/12/13 07:07:48;;;;;;;29.13;15.27;;;;;;;7.89;100.00;102545.16;5052943;28;20519;-58
2021/12/13 07:10:18;;;;;;;29.15;15.55;;;;;;;7.90;100.00;102544.09;5052903;28;20142;-58
2021/12/13 07:12:48;;;;;;;29.00;15.00;;;;;;;7.93;100.00;102540.00;5053013;28;20480;-57
2021/12/13 07:15:38;;;;;;;29.10;14.85;;;;;;;7.92;100.00;102541.94;5053033;28;20032;-57
2021/12/13 07:18:05;;;;;;;27.13;15.23;;;;;;;7.91;100.00;102547.66;5051074;28;20037;-58
2021/12/13 07:20:51;;;;;;;28.65;14.73;;;;;;;7.92;100.00;102544.69;5052001;28;20361;-56
2021/12/13 07:23:17;;;;;;;27.77;14.75;;;;;;;7.90;100.00;102546.84;5052259;28;20059;-56
2021/12/13 07:25:46;;;;;;;27.42;14.50;;;;;;;7.85;100.00;102543.97;5052342;28;20032;-56
2021/12/13 07:28:29;;;;;;;28.75;15.55;;;;;;;7.87;100.00;102541.81;5052566;28;20649;-59
2021/12/13 07:30:56;;;;;;;29.58;16.15;;;;;;;7.90;100.00;102541.34;5052751;28;20117;-60
2021/12/13 07:33:34;;;;;;;28.45;14.50;;;;;;;7.91;100.00;102551.28;5050684;28;20075;-59
2021/12/13 07:36:14;;;;;;;28.20;16.13;;;;;;;7.84;100.00;102538.72;5053748;28;20037;-59
2021/12/13 07:38:53;;;;;;;28.15;15.70;;;;;;;7.80;100.00;102543.88;5053852;28;20104;-58
2021/12/13 07:41:19;;;;;;;29.52;15.48;;;;;;;7.88;100.00;102562.78;5052372;28;20068;-59
2021/12/13 07:43:45;;;;;;;28.10;15.23;;;;;;;7.92;100.00;102561.22;5052491;28;20495;-60
2021/12/13 07:46:20;;;;;;;29.98;15.38;;;;;;;7.93;100.00;102559.28;5052194;28;20025;-59
2021/12/13 07:48:45;;;;;;;29.55;15.93;;;;;;;7.93;100.00;102562.91;5052235;28;20041;-59
2021/12/13 07:51:31;;;;;;;27.02;14.70;;;;;;;7.92;100.00;102561.22;5052087;28;20043;-58
2021/12/13 07:53:57;;;;;;;28.83;16.17;;;;;;;7.91;100.00;102565.06;5051819;28;20045;-58
2021/12/13 07:56:29;;;;;;;30.05;17.02;;;;;;;7.91;100.00;102567.81;5051806;28;20021;-59
2021/12/13 07:59:08;;;;;;;30.85;15.73;;;;;;;7.92;100.00;102577.75;5048975;28;20063;-59
2021/12/13 08:01:51;;;;;;;29.70;15.52;;;;;;;7.91;100.00;102573.31;5050941;28;20032;-59
2021/12/13 08:04:24;;;;;;;27.93;15.00;;;;;;;7.95;100.00;102579.19;5052220;28;20088;-59
2021/12/13 08:06:59;;;;;;;29.52;15.70;;;;;;;7.99;100.00;102585.03;5050533;28;20116;-58
2021/12/13 08:09:27;;;;;;;29.73;16.27;;;;;;;7.91;100.00;102573.31;5052117;28;20122;-59
2021/12/13 08:12:36;;;;;;;28.60;16.13;;;;;;;7.97;100.00;102575.09;5050432;28;20115;-58
2021/12/13 08:15:19;;;;;;;30.48;15.35;;;;;;;7.95;100.00;102585.50;5051196;28;20067;-59
2021/12/13 08:17:49;;;;;;;27.73;16.00;;;;;;;7.92;100.00;102577.75;5051749;28;20036;-59
2021/12/13 08:20:30;;;;;;;30.85;15.85;;;;;;;7.98;100.00;102584.22;5051545;28;20499;-59
2021/12/13 08:22:57;;;;;;;28.80;15.43;;;;;;;7.94;100.00;102572.81;5051603;28;20036;-59
2021/12/13 08:25:31;;;;;;;29.75;15.75;;;;;;;7.98;100.00;102581.44;5051542;28;20029;-59
2021/12/13 08:28:01;;;;;;;;;;;;;;;8.04;100.00;102574.94;5051835;28;20095;-58
2021/12/13 08:30:43;;;;;;;29.75;15.65;;;;;;;8.02;100.00;102573.53;5051322;28;19917;-56
2021/12/13 08:33:17;;;;;;;26.45;14.27;;;;;;;7.94;100.00;102570.06;5049600;28;20099;-58
2021/12/13 08:35:55;;;;;;;28.30;14.90;;;;;;;7.93;100.00;102564.81;5050041;28;20028;-59
2021/12/13 08:38:29;;;;;;;26.20;14.73;;;;;;;7.98;100.00;102575.94;5051236;28;20044;-58
2021/12/13 08:40:55;;;;;;;26.85;14.75;;;;;;;7.95;100.00;102574.50;5051362;28;20029;-57
2021/12/13 08:43:43;;;;;;;26.98;15.00;;;;;;;7.96;100.00;102578.91;5051159;28;20057;-59
2021/12/13 08:46:10;;;;;;;27.20;14.88;;;;;;;7.93;100.00;102576.69;5049866;28;20071;-59
2021/12/13 08:48:47;;;;;;;25.98;14.38;;;;;;;7.89;100.00;102569.13;5050352;28;20036;-58
2021/12/13 08:51:20;;;;;;;28.27;13.93;;;;;;;7.92;100.00;102577.75;5049254;28;20025;-59
2021/12/13 08:53:57;;;;;;;27.08;14.48;;;;;;;7.87;100.00;102571.31;5053462;28;20086;-59
2021/12/13 08:56:23;;;;;;;27.08;13.73;;;;;;;7.89;100.00;102578.22;5053470;28;20056;-59
2021/12/13 08:59:03;;;;;;;26.52;13.88;;;;;;;7.86;100.00;102570.44;5053199;28;20522;-59
2021/12/13 09:01:40;;;;;;;26.50;13.60;;;;;;;7.92;100.00;102577.75;5053244;28;20049;-59
2021/12/13 09:04:08;;;;;;;29.77;14.20;;;;;;;7.93;100.00;102584.94;5053647;28;20446;-58
2021/12/13 09:06:34;;;;;;;27.00;13.90;;;;;;;7.93;100.00;102598.72;5053010;28;20029;-59
2021/12/13 09:09:15;;;;;;;25.35;13.07;;;;;;;7.95;100.00;102582.75;5053192;28;20033;-58
2021/12/13 09:11:48;;;;;;;26.23;14.45;;;;;;;7.94;100.00;102578.31;5052878;28;20086;-58
2021/12/13 09:14:51;;;;;;;26.77;14.15;;;;;;;7.99;100.00;102583.09;5052888;28;20488;-58
2021/12/13 09:17:37;;;;;;;25.75;14.20;;;;;;;7.92;100.00;102577.75;5031673;28;20044;-59
2021/12/13 09:20:14;;;;;;;25.50;12.70;;;;;;;7.99;100.00;102596.88;5052742;28;20025;-59
2021/12/13 09:22:45;;;;;;;25.50;13.85;;;;;;;7.99;100.00;102593.28;5051743;28;20376;-60
2021/12/13 09:25:14;;;;;;;25.05;13.50;;;;;;;7.97;100.00;102594.38;5053016;28;20025;-59
2021/12/13 09:28:01;;;;;;;24.58;12.55;;;;;;;8.05;100.00;102606.09;5052986;28;20048;-59
2021/12/13 09:30:53;;;;;;;24.20;13.40;;;;;;;7.99;100.00;102601.56;5052929;28;20036;-60
2021/12/13 09:33:28;;;;;;;24.27;12.50;;;;;;;7.98;100.00;102611.75;5053207;28;20064;-59
2021/12/13 09:36:00;;;;;;;25.77;12.65;;;;;;;8.01;100.00;102622.28;5053374;28;20032;-59
2021/12/13 09:38:47;;;;;;;26.33;13.30;;;;;;;8.00;100.00;102620.59;5052905;28;20075;-59
2021/12/13 09:41:22;;;;;;;26.35;13.98;;;;;;;8.01;100.00;102627.78;5052137;28;20036;-59
2021/12/13 09:44:05;;;;;;;24.63;12.65;;;;;;;8.00;100.00;102630.81;5052803;28;20044;-60
2021/12/13 09:47:10;;;;;;;24.77;12.57;;;;;;;8.06;100.00;102640.84;5052748;28;20040;-59
2021/12/13 09:50:07;;;;;;;24.70;12.20;;;;;;;8.05;99.93;102658.47;5010923;28;20034;-60
2021/12/13 09:52:42;;;;;;;25.05;12.15;;;;;;;8.01;100.00;102655.34;5052482;28;20111;-60
2021/12/13 09:55:17;;;;;;;21.70;11.20;;;;;;;8.06;99.73;102655.47;5052715;28;20116;-59
2021/12/13 09:57:53;;;;;;;23.90;11.98;;;;;;;8.04;99.87;102651.25;5053091;28;20086;-60
2021/12/13 10:00:41;;;;;;;24.90;12.27;;;;;;;8.11;99.42;102663.00;5053932;28;20146;-59
2021/12/13 10:03:28;;;;;;;24.55;11.52;;;;;;;8.14;99.44;102664.44;5056371;28;20033;-59
2021/12/13 10:05:57;;;;;;;22.95;11.50;;;;;;;8.15;99.25;102666.13;5056407;28;20426;-60
2021/12/13 10:08:27;;;;;;;22.52;11.30;;;;;;;8.14;99.40;102658.91;5055078;28;20064;-59
2021/12/13 10:10:56;;;;;;;22.30;11.40;;;;;;;8.16;99.30;102662.28;5056151;28;20072;-59
2021/12/13 10:13:26;;;;;;;22.85;11.68;;;;;;;8.19;99.56;102659.84;5056219;28;20033;-59
2021/12/13 10:16:07;;;;;;;21.27;11.35;;;;;;;8.16;98.78;102648.50;5056207;28;20460;-60
2021/12/13 10:18:34;;;;;;;23.67;11.32;;;;;;;8.18;98.93;102652.66;5056329;28;20438;-59
2021/12/13 10:21:08;;;;;;;23.77;11.35;;;;;;;8.18;98.90;102649.91;5054779;28;20033;-59
2021/12/13 10:23:38;;;;;;;24.13;11.98;;;;;;;8.24;99.18;102659.94;5056044;28;20036;-58
2021/12/13 10:26:06;;;;;;;21.25;10.40;;;;;;;8.26;98.97;102652.28;5055936;28;20484;-60
2021/12/13 10:28:36;;;;;;;21.83;10.75;;;;;;;8.24;98.92;102642.59;5055962;28;20025;-60
2021/12/13 10:31:06;;;;;;;21.25;10.43;;;;;;;8.23;98.46;102636.22;5055885;28;20477;-60
2021/12/13 10:33:35;;;;;;;22.17;11.13;;;;;;;8.28;97.96;102643.75;5055886;28;20036;-60
2021/12/13 10:36:02;;;;;;;20.88;10.32;;;;;;;8.28;98.09;102636.31;5055961;28;20032;-60
2021/12/13 10:38:41;;;;;;;22.30;11.32;;;;;;;8.30;98.00;102641.59;5055809;28;20025;-60
2021/12/13 10:41:14;;;;;;;21.33;9.88;;;;;;;8.26;97.63;102621.13;5055791;28;20036;-60
2021/12/13 10:43:48;;;;;;;21.38;10.35;;;;;;;8.32;97.45;102644.94;5055570;28;20041;-60
2021/12/13 10:46:18;;;;;;;;;;;;;;;8.40;98.75;102643.72;5055991;28;20392;-59
2021/12/13 10:48:48;;;;;;;21.20;9.57;;;;;;;8.36;97.25;102643.34;5055536;28;19909;-60
2021/12/13 10:51:21;;;;;;;20.10;9.10;;;;;;;8.39;97.07;102640.09;5055484;28;20032;-61
2021/12/13 10:53:49;;;;;;;20.83;9.35;;;;;;;8.36;96.85;102628.72;5055442;28;20106;-60
2021/12/13 10:56:27;;;;;;;21.15;9.75;;;;;;;8.34;96.54;102629.00;5055340;28;20029;-61
2021/12/13 10:58:56;;;;;;;19.80;9.65;;;;;;;8.41;96.87;102637.09;5055418;28;20032;-60
2021/12/13 11:01:26;;;;;;;20.27;9.20;;;;;;;8.37;96.29;102622.97;5055478;28;20025;-60
2021/12/13 11:03:54;;;;;;;18.98;9.25;;;;;;;8.43;96.73;102633.03;5055352;28;20495;-60
2021/12/13 11:06:20;;;;;;;20.52;8.70;;;;;;;8.46;96.25;102630.84;5055249;28;20037;-59
2021/12/13 11:08:46;;;;;;;19.65;8.80;;;;;;;8.47;96.58;102627.88;5055471;28;20028;-60
2021/12/13 11:11:18;;;;;;;18.80;8.95;;;;;;;8.45;95.75;102623.66;5054743;28;20048;-60
2021/12/13 11:13:44;;;;;;;19.63;8.75;;;;;;;8.46;95.30;102630.84;5054716;28;20035;-60
2021/12/13 11:16:17;;;;;;;19.38;9.05;;;;;;;8.48;95.43;102632.31;5055184;28;20025;-60
2021/12/13 11:18:45;;;;;;;18.17;8.48;;;;;;;8.47;95.20;102627.88;5054890;28;20043;-59
2021/12/13 11:21:21;;;;;;;19.45;8.90;;;;;;;8.46;95.74;102612.38;5055135;28;20024;-60
2021/12/13 11:23:47;;;;;;;20.38;9.10;;;;;;;8.52;95.74;102618.84;5055064;28;20025;-59
2021/12/13 11:26:17;;;;;;;19.33;8.63;;;;;;;8.48;95.66;102617.66;5055066;28;20440;-59
2021/12/13 11:28:43;;;;;;;19.27;8.70;;;;;;;8.55;95.29;102629.38;5054973;28;20033;-59
2021/12/13 11:31:14;;;;;;;19.25;9.13;;;;;;;8.53;94.84;102621.34;5054766;28;20083;-60
2021/12/13 11:33:40;;;;;;;18.85;9.00;;;;;;;8.54;94.52;102628.53;5055262;28;20031;-60
2021/12/13 11:36:43;;;;;;;20.02;9.38;;;;;;;8.55;94.51;102630.22;5054813;28;20029;-58
2021/12/13 11:39:33;;;;;;;19.40;9.13;;;;;;;8.56;94.66;102634.66;5054550;28;20020;-58
2021/12/13 11:42:17;;;;;;;18.55;8.63;;;;;;;8.55;94.40;102626.63;5054322;28;20056;-59
2021/12/13 11:44:56;;;;;;;19.52;9.25;;;;;;;8.54;94.54;102620.28;5054757;28;20033;-59
2021/12/13 11:47:40;;;;;;;18.60;8.93;;;;;;;8.49;94.74;102617.44;5054779;28;20029;-59
2021/12/13 11:50:30;;;;;;;19.08;8.80;;;;;;;8.60;95.03;102625.91;5054307;28;20557;-58